DYess Air Force Base Abilene US
ICAO: KDYS
IATA: DYS
Category: Large
Scheduled Services: No

Elevation: 1789 ft
TransAlt. 18000 ft.

Airport Communications:
ABILENE APP/DEP:125
ATIS:38.57
GND:118.35
PMSV METRO:38.325
ACC COMMAND POST:31.1
AMCC:34.94
PTD:139.3
TWR:133

KDYS Zoom In..

If you have problems with the map follow the link
https://www.worldairports.se/pages/airport.php?
ICAO=KDYS

Runways:

(A) RW 16 length 13500 ft width 300 ft
ILS 109.90 / hdg 161

(B) RW 34 length 13500 ft width 300 ft
ILS 109.90 / hdg 341

Location; KDYS
Day. 22 / Time. 16.56 Zulu
* Altimeter: 29.95
* Temperature: 09° c. 48.2°f.
* Wind from: 100° Speed 05 kn.
Dewpoint: 06° c.
Visibility: 7 Statute Miles.
Clouds: Overcast 500 ft.
Conditions: Mist.

KDYS 221656Z 10005KT 7SM OVC005 09/06 A2995 RMK AO2A CIG 004 RWY34 SLPNO BR DSNT T00940063 $


Wind From 100°
Speed 05 kn.

 
 
jpsmedia.com for Web Design worldairports.se 2019   terms of use